createdAt,value
2023-04-07T00:00:19.140Z,100741.84
2023-04-07T00:02:48.952Z,100745.13
2023-04-07T00:05:17.710Z,100743.06
2023-04-07T00:07:55.707Z,100741.06
2023-04-07T00:10:25.823Z,100743.06
2023-04-07T00:12:54.495Z,100734.78
2023-04-07T00:15:23.127Z,100740.16
2023-04-07T00:17:52.930Z,100734.09
2023-04-07T00:20:21.756Z,100733.25
2023-04-07T00:22:50.251Z,100734.03
2023-04-07T00:25:19.217Z,100737.50
2023-04-07T00:27:47.814Z,100720.97
2023-04-07T00:30:17.690Z,100713.09
2023-04-07T00:32:46.387Z,100717.38
2023-04-07T00:35:16.308Z,100711.25
2023-04-07T00:37:44.962Z,100707.69
2023-04-07T00:40:13.942Z,100703.31
2023-04-07T00:42:42.693Z,100702.47
2023-04-07T00:45:12.722Z,100694.78
2023-04-07T00:47:42.072Z,100698.22
2023-04-07T00:50:11.930Z,100697.31
2023-04-07T00:52:42.399Z,100695.53
2023-04-07T00:55:11.245Z,100689.38
2023-04-07T00:57:39.616Z,100690.22
2023-04-07T01:00:09.930Z,100690.19
2023-04-07T01:02:43.252Z,100676.13
2023-04-07T01:05:17.540Z,100670.88
2023-04-07T01:07:59.709Z,100675.22
2023-04-07T01:10:36.526Z,100669.13
2023-04-07T01:13:25.109Z,100666.50
2023-04-07T01:16:00.622Z,100652.59
2023-04-07T01:18:34.604Z,100651.66
2023-04-07T01:21:07.135Z,100657.69
2023-04-07T01:24:02.610Z,100654.84
2023-04-07T01:26:33.665Z,100659.19
2023-04-07T01:29:35.432Z,100652.84
2023-04-07T01:32:08.290Z,100643.28
2023-04-07T01:34:38.127Z,100638.97
2023-04-07T01:37:07.645Z,100636.94
2023-04-07T01:39:37.869Z,100632.63
2023-04-07T01:42:07.974Z,100642.75
2023-04-07T01:44:38.597Z,100642.91
2023-04-07T01:47:08.135Z,100644.91
2023-04-07T01:49:37.995Z,100629.28
2023-04-07T01:52:07.647Z,100635.34
2023-04-07T01:54:36.781Z,100631.09
2023-04-07T01:57:05.506Z,100625.94
2023-04-07T01:59:34.177Z,100624.19
2023-04-07T02:02:05.625Z,100622.56
2023-04-07T02:04:41.182Z,100628.75
2023-04-07T02:07:15.320Z,100626.13
2023-04-07T02:09:49.384Z,100627.03
2023-04-07T02:12:19.071Z,100627.97
2023-04-07T02:14:59.807Z,100621.09
2023-04-07T02:17:31.144Z,100621.13
2023-04-07T02:20:02.463Z,100616.81
2023-04-07T02:22:31.886Z,100622.88
2023-04-07T02:25:00.732Z,100617.75
2023-04-07T02:27:29.166Z,100617.81
2023-04-07T02:29:57.752Z,100617.84
2023-04-07T02:32:26.654Z,100613.59
2023-04-07T02:34:56.875Z,100617.09
2023-04-07T02:37:25.662Z,100608.44
2023-04-07T02:39:54.227Z,100620.59
2023-04-07T02:42:22.881Z,100612.81
2023-04-07T02:44:51.698Z,100612.84
2023-04-07T02:47:20.565Z,100615.44
2023-04-07T02:49:49.294Z,100611.13
2023-04-07T02:52:19.209Z,100604.19
2023-04-07T02:54:47.784Z,100609.41
2023-04-07T02:57:18.975Z,100612.88
2023-04-07T02:59:48.338Z,100610.31
2023-04-07T03:02:17.669Z,100612.06
2023-04-07T03:04:46.383Z,100619.00
2023-04-07T03:07:15.032Z,100621.63
2023-04-07T03:09:44.763Z,100612.06
2023-04-07T03:12:14.004Z,100609.44
2023-04-07T03:14:42.650Z,100597.28
2023-04-07T03:17:12.757Z,100603.34
2023-04-07T03:19:41.200Z,100605.09
2023-04-07T03:22:10.017Z,100599.06
2023-04-07T03:24:46.581Z,100598.16
2023-04-07T03:27:17.444Z,100598.19
2023-04-07T03:29:48.918Z,100597.31
2023-04-07T03:32:18.867Z,100601.69
2023-04-07T03:34:47.446Z,100597.34
2023-04-07T03:37:16.165Z,100595.66
2023-04-07T03:39:46.476Z,100596.53
2023-04-07T03:42:28.054Z,100596.56
2023-04-07T03:45:02.838Z,100597.41
2023-04-07T03:47:33.471Z,100592.19
2023-04-07T03:50:04.646Z,100599.13
2023-04-07T03:52:38.160Z,100596.53
2023-04-07T03:55:17.205Z,100590.47
2023-04-07T03:57:45.994Z,100583.50
2023-04-07T04:00:15.598Z,100592.19
2023-04-07T04:03:01.152Z,100604.34
2023-04-07T04:05:30.254Z,100595.66
2023-04-07T04:07:59.322Z,100590.44
2023-04-07T04:10:30.429Z,100586.97
2023-04-07T04:13:00.913Z,100583.47
2023-04-07T04:15:29.679Z,100588.69
2023-04-07T04:17:58.409Z,100605.22
2023-04-07T04:20:27.578Z,100592.16
2023-04-07T04:22:56.304Z,100606.91
2023-04-07T04:25:25.300Z,100597.31
2023-04-07T04:27:58.560Z,100592.94
2023-04-07T04:30:29.892Z,100592.06
2023-04-07T04:33:04.124Z,100596.41
2023-04-07T04:35:39.599Z,100592.91
2023-04-07T04:38:11.971Z,100594.66
2023-04-07T04:40:45.374Z,100596.38
2023-04-07T04:43:16.933Z,100599.81
2023-04-07T04:45:46.459Z,100589.38
2023-04-07T04:48:17.319Z,100593.72
2023-04-07T04:50:46.044Z,100598.88
2023-04-07T04:53:15.977Z,100600.59
2023-04-07T04:55:53.266Z,100605.78
2023-04-07T04:58:33.695Z,100604.91
2023-04-07T05:01:02.043Z,100595.38
2023-04-07T05:03:38.955Z,100606.63
2023-04-07T05:06:16.785Z,100609.22
2023-04-07T05:08:47.239Z,100604.84
2023-04-07T05:11:17.423Z,100597.88
2023-04-07T05:13:51.940Z,100599.59
2023-04-07T05:16:20.896Z,100604.78
2023-04-07T05:18:49.823Z,100599.56
2023-04-07T05:21:20.208Z,100603.88
2023-04-07T05:23:49.247Z,100596.91
2023-04-07T05:26:18.075Z,100600.34
2023-04-07T05:28:47.094Z,100603.81
2023-04-07T05:31:21.787Z,100595.09
2023-04-07T05:33:54.001Z,100596.81
2023-04-07T05:36:25.595Z,100594.16
2023-04-07T05:38:57.595Z,100598.44
2023-04-07T05:41:26.348Z,100601.91
2023-04-07T05:43:55.072Z,100601.00
2023-04-07T05:46:25.322Z,100597.50
2023-04-07T05:48:59.165Z,100595.75
2023-04-07T05:51:32.206Z,100596.59
2023-04-07T05:54:04.511Z,100592.19
2023-04-07T05:56:33.809Z,100593.00
2023-04-07T05:59:02.919Z,100597.31
2023-04-07T06:01:32.810Z,100594.66
2023-04-07T06:04:03.377Z,100592.84
2023-04-07T06:06:32.461Z,100592.78
2023-04-07T06:09:01.104Z,100598.81
2023-04-07T06:11:29.790Z,100598.78
2023-04-07T06:13:58.124Z,100604.81
2023-04-07T06:16:26.849Z,100600.41
2023-04-07T06:18:56.863Z,100609.97
2023-04-07T06:21:26.511Z,100609.06
2023-04-07T06:23:55.268Z,100608.13
2023-04-07T06:26:23.743Z,100603.72
2023-04-07T06:28:53.055Z,100606.28
2023-04-07T06:31:22.034Z,100609.69
2023-04-07T06:33:50.911Z,100607.00
2023-04-07T06:36:23.402Z,100610.44
2023-04-07T06:38:52.208Z,100607.75
2023-04-07T06:41:20.797Z,100597.19
2023-04-07T06:43:51.275Z,100609.28
2023-04-07T06:46:20.476Z,100617.00
2023-04-07T06:48:49.136Z,100619.50
2023-04-07T06:51:17.429Z,100615.94
2023-04-07T06:53:48.647Z,100619.31
2023-04-07T06:56:17.247Z,100621.81
2023-04-07T06:58:45.560Z,100619.94
2023-04-07T07:01:14.195Z,100617.22
2023-04-07T07:03:42.942Z,100608.44
2023-04-07T07:06:11.791Z,100610.97
2023-04-07T07:08:40.384Z,100616.94
2023-04-07T07:11:10.420Z,100623.00
2023-04-07T07:13:39.811Z,100610.72
2023-04-07T07:16:08.599Z,100621.16
2023-04-07T07:18:37.926Z,100622.88
2023-04-07T07:21:06.875Z,100625.47
2023-04-07T07:23:35.608Z,100626.25
2023-04-07T07:26:04.224Z,100620.13
2023-04-07T07:28:33.953Z,100620.00
2023-04-07T07:31:04.397Z,100628.63
2023-04-07T07:33:32.979Z,100620.72
2023-04-07T07:36:01.557Z,100612.75
2023-04-07T07:38:30.174Z,100616.16
2023-04-07T07:40:58.723Z,100610.81
2023-04-07T07:43:27.757Z,100614.13
2023-04-07T07:45:57.650Z,100622.66
2023-04-07T07:48:26.808Z,100619.03
2023-04-07T07:50:56.951Z,100628.41
2023-04-07T07:53:25.892Z,100619.34
2023-04-07T07:55:55.956Z,100630.34
2023-04-07T07:58:24.718Z,100630.75
2023-04-07T08:00:53.366Z,100631.34
2023-04-07T08:03:23.514Z,100632.81
2023-04-07T08:05:52.204Z,100634.19
2023-04-07T08:08:20.785Z,100635.50
2023-04-07T08:10:49.393Z,100634.94
2023-04-07T08:13:17.684Z,100635.91
2023-04-07T08:15:46.286Z,100639.72
2023-04-07T08:18:14.919Z,100644.66
2023-04-07T08:20:44.640Z,100637.38
2023-04-07T08:23:13.335Z,100641.59
2023-04-07T08:25:41.912Z,100645.00
2023-04-07T08:28:10.501Z,100645.84
2023-04-07T08:30:39.146Z,100650.19
2023-04-07T08:33:08.862Z,100645.81
2023-04-07T08:35:37.552Z,100653.91
2023-04-07T08:38:08.565Z,100657.44
2023-04-07T08:40:37.550Z,100659.25
2023-04-07T08:43:10.483Z,100657.66
2023-04-07T08:45:42.146Z,100660.53
2023-04-07T08:48:19.032Z,100657.25
2023-04-07T08:50:52.603Z,100665.28
2023-04-07T08:53:30.581Z,100670.63
2023-04-07T08:55:59.698Z,100661.00
2023-04-07T08:58:28.631Z,100654.78
2023-04-07T09:00:57.819Z,100660.63
2023-04-07T09:03:28.121Z,100664.69
2023-04-07T09:05:57.923Z,100665.94
2023-04-07T09:08:27.682Z,100667.16
2023-04-07T09:10:57.994Z,100671.03
2023-04-07T09:13:26.831Z,100673.31
2023-04-07T09:15:56.119Z,100664.31
2023-04-07T09:18:25.024Z,100669.47
2023-04-07T09:21:02.413Z,100673.06
2023-04-07T09:23:37.234Z,100675.94
2023-04-07T09:26:22.008Z,100683.03
2023-04-07T09:28:53.209Z,100681.63
2023-04-07T09:31:22.498Z,100674.75
2023-04-07T09:33:51.773Z,100679.22
2023-04-07T09:36:20.470Z,100672.16
2023-04-07T09:38:50.161Z,100675.69
2023-04-07T09:41:18.965Z,100674.88
2023-04-07T09:43:48.368Z,100681.81
2023-04-07T09:46:19.486Z,100680.84
2023-04-07T09:48:48.558Z,100684.28
2023-04-07T09:51:18.320Z,100683.34
2023-04-07T09:53:51.474Z,100680.75
2023-04-07T09:56:22.406Z,100685.28
2023-04-07T09:58:53.072Z,100683.66
2023-04-07T10:01:22.899Z,100674.91
2023-04-07T10:03:52.863Z,100683.75
2023-04-07T10:06:21.774Z,100683.03
2023-04-07T10:08:51.613Z,100679.56
2023-04-07T10:11:21.040Z,100683.41
2023-04-07T10:13:49.954Z,100686.19
2023-04-07T10:16:18.979Z,100690.78
2023-04-07T10:18:47.853Z,100698.78
2023-04-07T10:21:18.171Z,100701.63
2023-04-07T10:23:57.851Z,100691.38
2023-04-07T10:26:31.402Z,100698.50
2023-04-07T10:29:07.086Z,100693.19
2023-04-07T10:31:36.408Z,100703.59
2023-04-07T10:34:05.817Z,100701.03
2023-04-07T10:36:35.378Z,100712.56
2023-04-07T10:39:24.269Z,100703.78
2023-04-07T10:41:53.292Z,100707.16
2023-04-07T10:44:46.646Z,100715.13
2023-04-07T10:47:15.330Z,100716.00
2023-04-07T10:50:20.378Z,100719.53
2023-04-07T10:52:50.687Z,100710.81
2023-04-07T10:55:37.967Z,100716.25
2023-04-07T10:58:25.459Z,100728.66
2023-04-07T11:01:20.797Z,100715.69
2023-04-07T11:04:02.464Z,100716.91
2023-04-07T11:06:31.516Z,100718.75
2023-04-07T11:09:00.147Z,100721.38
2023-04-07T11:11:43.451Z,100718.84
2023-04-07T11:14:12.134Z,100726.06
2023-04-07T11:16:43.258Z,100720.81
2023-04-07T11:19:11.872Z,100719.84
2023-04-07T11:21:41.058Z,100718.13
2023-04-07T11:24:09.706Z,100714.66
2023-04-07T11:26:43.645Z,100723.44
2023-04-07T11:29:13.451Z,100722.53
2023-04-07T11:31:42.034Z,100720.75
2023-04-07T11:34:11.175Z,100726.78
2023-04-07T11:36:42.704Z,100723.16
2023-04-07T11:39:21.274Z,100728.31
2023-04-07T11:41:51.992Z,100724.59
2023-04-07T11:44:21.008Z,100727.94
2023-04-07T11:46:56.838Z,100737.63
2023-04-07T11:49:28.033Z,100737.59
2023-04-07T11:52:01.778Z,100733.16
2023-04-07T11:54:41.169Z,100738.16
2023-04-07T11:57:12.803Z,100737.19
2023-04-07T11:59:42.437Z,100737.00
2023-04-07T12:02:10.814Z,100738.59
2023-04-07T12:04:41.359Z,100740.06
2023-04-07T12:07:11.159Z,100743.34
2023-04-07T12:09:41.010Z,100744.09
2023-04-07T12:12:11.083Z,100738.00
2023-04-07T12:14:39.861Z,100747.50
2023-04-07T12:17:09.452Z,100749.97
2023-04-07T12:19:39.428Z,100749.66
2023-04-07T12:22:07.731Z,100744.16
2023-04-07T12:24:36.445Z,100745.75
2023-04-07T12:27:05.227Z,100748.28
2023-04-07T12:29:36.594Z,100749.22
2023-04-07T12:32:05.484Z,100747.56
2023-04-07T12:34:37.375Z,100749.31
2023-04-07T12:37:07.227Z,100756.28
2023-04-07T12:39:35.940Z,100753.38
2023-04-07T12:42:05.132Z,100755.63
2023-04-07T12:44:34.778Z,100749.91
2023-04-07T12:47:03.361Z,100756.44
2023-04-07T12:49:31.980Z,100750.06
2023-04-07T12:52:00.586Z,100749.72
2023-04-07T12:54:28.880Z,100761.75
2023-04-07T12:56:57.250Z,100763.22
2023-04-07T12:59:25.731Z,100759.47
2023-04-07T13:01:56.341Z,100763.75
2023-04-07T13:04:26.928Z,100762.03
2023-04-07T13:06:55.810Z,100754.13
2023-04-07T13:09:24.115Z,100765.38
2023-04-07T13:11:52.759Z,100759.25
2023-04-07T13:14:21.352Z,100758.53
2023-04-07T13:16:49.790Z,100758.81
2023-04-07T13:19:19.571Z,100760.91
2023-04-07T13:21:48.555Z,100764.88
2023-04-07T13:24:17.310Z,100760.69
2023-04-07T13:26:46.400Z,100759.97
2023-04-07T13:29:15.014Z,100763.69
2023-04-07T13:31:43.610Z,100763.88
2023-04-07T13:34:12.223Z,100764.16
2023-04-07T13:36:42.970Z,100758.34
2023-04-07T13:39:12.188Z,100762.88
2023-04-07T13:41:40.788Z,100763.13
2023-04-07T13:44:09.506Z,100774.75
2023-04-07T13:46:38.237Z,100774.88
2023-04-07T13:49:07.501Z,100774.13
2023-04-07T13:51:36.099Z,100770.78
2023-04-07T13:54:05.914Z,100772.69
2023-04-07T13:56:35.570Z,100776.19
2023-04-07T13:59:04.540Z,100773.53
2023-04-07T14:01:33.890Z,100772.50
2023-04-07T14:04:02.868Z,100767.09
2023-04-07T14:06:31.701Z,100775.69
2023-04-07T14:09:01.102Z,100770.34
2023-04-07T14:11:31.060Z,100779.00
2023-04-07T14:13:59.847Z,100780.78
2023-04-07T14:16:28.530Z,100768.59
2023-04-07T14:18:57.206Z,100777.50
2023-04-07T14:21:27.445Z,100774.31
2023-04-07T14:23:56.257Z,100777.16
2023-04-07T14:26:25.127Z,100779.09
2023-04-07T14:28:54.788Z,100776.50
2023-04-07T14:31:23.432Z,100777.31
2023-04-07T14:33:51.988Z,100777.31
2023-04-07T14:36:20.722Z,100772.03
2023-04-07T14:38:50.808Z,100774.53
2023-04-07T14:41:20.201Z,100770.94
2023-04-07T14:43:53.655Z,100775.97
2023-04-07T14:46:23.797Z,100771.28
2023-04-07T14:48:53.541Z,100767.38
2023-04-07T14:51:23.232Z,100767.81
2023-04-07T14:53:55.760Z,100776.94
2023-04-07T14:56:24.759Z,100775.84
2023-04-07T14:58:53.379Z,100772.13
2023-04-07T15:01:23.237Z,100775.31
2023-04-07T15:03:53.639Z,100775.00
2023-04-07T15:06:23.489Z,100771.34
2023-04-07T15:08:52.066Z,100784.56
2023-04-07T15:11:21.561Z,100778.69
2023-04-07T15:13:50.755Z,100782.56
2023-04-07T15:16:19.783Z,100786.44
2023-04-07T15:18:50.101Z,100776.22
2023-04-07T15:21:19.118Z,100782.69
2023-04-07T15:23:48.094Z,100782.03
2023-04-07T15:26:17.024Z,100785.69
2023-04-07T15:28:45.338Z,100785.84
2023-04-07T15:31:15.313Z,100787.66
2023-04-07T15:33:44.804Z,100789.56
2023-04-07T15:36:14.455Z,100783.50
2023-04-07T15:38:43.112Z,100782.50
2023-04-07T15:41:15.201Z,100777.88
2023-04-07T15:43:43.830Z,100783.91
2023-04-07T15:46:12.442Z,100790.84
2023-04-07T15:48:41.132Z,100788.22
2023-04-07T15:51:09.715Z,100787.38
2023-04-07T15:53:39.442Z,100790.19
2023-04-07T15:56:08.364Z,100793.84
2023-04-07T15:58:36.900Z,100796.63
2023-04-07T16:01:06.097Z,100794.91
2023-04-07T16:03:34.787Z,100796.72
2023-04-07T16:06:03.426Z,100801.06
2023-04-07T16:08:32.071Z,100812.41
2023-04-07T16:11:02.060Z,100813.00
2023-04-07T16:13:30.633Z,100801.69
2023-04-07T16:15:59.246Z,100802.84
2023-04-07T16:18:27.571Z,100799.97
2023-04-07T16:20:56.172Z,100806.97
2023-04-07T16:23:24.747Z,100807.88
2023-04-07T16:25:53.346Z,100806.16
2023-04-07T16:28:23.055Z,100811.34
2023-04-07T16:30:51.649Z,100810.38
2023-04-07T16:33:21.001Z,100805.91
2023-04-07T16:35:49.599Z,100810.13
2023-04-07T16:38:18.176Z,100813.47
2023-04-07T16:41:02.679Z,100812.53
2023-04-07T16:43:33.404Z,100814.88
2023-04-07T16:46:01.854Z,100818.50
2023-04-07T16:48:30.738Z,100813.94
2023-04-07T16:50:59.024Z,100827.97
2023-04-07T16:53:27.367Z,100822.78
2023-04-07T16:55:56.439Z,100827.09
2023-04-07T16:58:25.039Z,100835.97
2023-04-07T17:00:55.012Z,100827.53
2023-04-07T17:03:23.738Z,100830.94
2023-04-07T17:05:52.403Z,100837.88
2023-04-07T17:08:21.193Z,100839.47
2023-04-07T17:10:49.460Z,100841.66
2023-04-07T17:13:18.047Z,100844.69
2023-04-07T17:15:46.733Z,100849.31
2023-04-07T17:18:16.461Z,100856.63
2023-04-07T17:20:45.022Z,100860.38
2023-04-07T17:23:14.222Z,100871.22
2023-04-07T17:25:42.996Z,100869.03
2023-04-07T17:28:11.333Z,100871.03
2023-04-07T17:30:39.966Z,100880.09
2023-04-07T17:33:09.084Z,100885.63
2023-04-07T17:35:38.883Z,100881.50
2023-04-07T17:38:07.324Z,100883.56
2023-04-07T17:40:36.152Z,100888.09
2023-04-07T17:43:04.774Z,100893.50
2023-04-07T17:45:33.093Z,100890.13
2023-04-07T17:48:03.583Z,100893.78
2023-04-07T17:50:32.621Z,100905.41
2023-04-07T17:53:02.364Z,100909.13
2023-04-07T17:55:30.955Z,100909.41
2023-04-07T17:58:01.022Z,100909.66
2023-04-07T18:00:30.596Z,100914.22
2023-04-07T18:02:59.560Z,100912.63
2023-04-07T18:05:30.842Z,100918.03
2023-04-07T18:08:00.812Z,100917.25
2023-04-07T18:10:29.947Z,100928.75
2023-04-07T18:12:58.601Z,100929.66
2023-04-07T18:15:27.709Z,100931.47
2023-04-07T18:17:56.418Z,100930.66
2023-04-07T18:20:24.898Z,100935.06
2023-04-07T18:22:53.605Z,100939.47
2023-04-07T18:25:23.668Z,100936.03
2023-04-07T18:27:52.357Z,100947.41
2023-04-07T18:30:21.355Z,100944.84
2023-04-07T18:32:50.113Z,100951.94
2023-04-07T18:35:18.717Z,100960.66
2023-04-07T18:37:47.353Z,100958.09
2023-04-07T18:40:16.203Z,100962.50
2023-04-07T18:42:46.366Z,100959.00
2023-04-07T18:45:14.996Z,100972.19
2023-04-07T18:47:43.327Z,100978.41
2023-04-07T18:50:12.029Z,100977.59
2023-04-07T18:52:40.620Z,100972.44
2023-04-07T18:55:10.866Z,100989.09
2023-04-07T18:57:40.267Z,100988.25
2023-04-07T19:00:11.234Z,100987.44
2023-04-07T19:02:44.354Z,100990.09
2023-04-07T19:05:13.416Z,100991.00
2023-04-07T19:07:41.719Z,100989.25
2023-04-07T19:10:10.994Z,101004.16
2023-04-07T19:12:40.003Z,100994.59
2023-04-07T19:15:11.304Z,101005.09
2023-04-07T19:17:40.183Z,101005.16
2023-04-07T19:20:09.819Z,101008.72
2023-04-07T19:22:38.437Z,101014.03
2023-04-07T19:25:08.313Z,101013.25
2023-04-07T19:27:37.057Z,101021.19
2023-04-07T19:30:06.799Z,101021.28
2023-04-07T19:32:36.585Z,101020.41
2023-04-07T19:35:05.412Z,101017.84
2023-04-07T19:37:34.513Z,101017.88
2023-04-07T19:40:03.708Z,101021.41
2023-04-07T19:42:32.535Z,101022.31
2023-04-07T19:45:02.344Z,101022.31
2023-04-07T19:47:31.194Z,101032.00
2023-04-07T19:50:01.371Z,101032.00
2023-04-07T19:52:31.326Z,101031.19
2023-04-07T19:55:01.071Z,101036.47
2023-04-07T19:57:31.095Z,101037.41
2023-04-07T19:59:59.473Z,101044.44
2023-04-07T20:02:29.010Z,101046.31
2023-04-07T20:04:58.427Z,101037.63
2023-04-07T20:07:29.243Z,101038.56
2023-04-07T20:09:58.258Z,101041.22
2023-04-07T20:12:26.874Z,101041.22
2023-04-07T20:14:55.373Z,101036.91
2023-04-07T20:17:23.972Z,101049.13
2023-04-07T20:19:55.920Z,101057.00
2023-04-07T20:22:24.502Z,101058.78
2023-04-07T20:24:54.169Z,101055.31
2023-04-07T20:27:22.848Z,101056.22
2023-04-07T20:29:51.709Z,101058.84
2023-04-07T20:32:20.374Z,101057.94
2023-04-07T20:34:51.554Z,101051.84
2023-04-07T20:37:20.541Z,101057.94
2023-04-07T20:39:49.293Z,101058.84
2023-04-07T20:42:19.008Z,101058.84
2023-04-07T20:44:50.171Z,101057.13
2023-04-07T20:47:18.803Z,101057.13
2023-04-07T20:49:47.652Z,101058.91
2023-04-07T20:52:16.614Z,101057.16
2023-04-07T20:54:47.588Z,101062.44
2023-04-07T20:57:16.194Z,101055.53
2023-04-07T20:59:45.865Z,101058.19
2023-04-07T21:02:14.667Z,101058.25
2023-04-07T21:04:43.412Z,101067.91
2023-04-07T21:07:12.004Z,101062.75
2023-04-07T21:09:41.367Z,101060.25
2023-04-07T21:12:10.867Z,101066.44
2023-04-07T21:14:39.140Z,101068.22
2023-04-07T21:17:08.830Z,101069.19
2023-04-07T21:19:37.232Z,101060.53
2023-04-07T21:22:05.958Z,101066.69
2023-04-07T21:24:34.630Z,101061.50
2023-04-07T21:27:03.267Z,101059.84
2023-04-07T21:29:32.690Z,101073.81
2023-04-07T21:32:01.053Z,101070.38
2023-04-07T21:34:31.005Z,101073.03
2023-04-07T21:36:59.623Z,101060.00
2023-04-07T21:39:27.984Z,101071.41
2023-04-07T21:41:56.937Z,101056.59
2023-04-07T21:44:25.609Z,101076.69
2023-04-07T21:46:54.344Z,101075.00
2023-04-07T21:49:23.025Z,101077.63
2023-04-07T21:51:52.827Z,101068.91
2023-04-07T21:54:21.567Z,101078.50
2023-04-07T21:56:51.583Z,101088.97
2023-04-07T21:59:20.154Z,101087.22
2023-04-07T22:01:48.837Z,101087.19
2023-04-07T22:04:17.806Z,101082.84
2023-04-07T22:06:46.442Z,101088.06
2023-04-07T22:09:16.427Z,101092.44
2023-04-07T22:11:44.753Z,101089.84
2023-04-07T22:14:13.373Z,101090.75
2023-04-07T22:16:41.672Z,101093.38
2023-04-07T22:19:10.335Z,101086.41
2023-04-07T22:21:38.887Z,101094.25
2023-04-07T22:24:07.215Z,101092.50
2023-04-07T22:26:37.565Z,101099.47
2023-04-07T22:29:06.235Z,101092.50
2023-04-07T22:31:34.876Z,101109.91
2023-04-07T22:34:03.689Z,101103.78
2023-04-07T22:36:33.488Z,101108.09
2023-04-07T22:39:02.092Z,101105.47
2023-04-07T22:41:30.398Z,101107.19
2023-04-07T22:44:00.137Z,101116.75
2023-04-07T22:46:28.545Z,101123.72
2023-04-07T22:48:57.621Z,101115.88
2023-04-07T22:51:27.061Z,101115.84
2023-04-07T22:53:55.534Z,101114.03
2023-04-07T22:56:25.374Z,101122.72
2023-04-07T22:58:53.948Z,101129.69
2023-04-07T23:01:24.087Z,101118.34
2023-04-07T23:03:52.765Z,101124.41
2023-04-07T23:06:21.047Z,101118.31
2023-04-07T23:08:49.872Z,101124.38
2023-04-07T23:11:19.148Z,101122.63
2023-04-07T23:13:48.356Z,101130.47
2023-04-07T23:16:17.293Z,101129.56
2023-04-07T23:18:47.169Z,101131.31
2023-04-07T23:21:15.936Z,101133.94
2023-04-07T23:23:44.518Z,101133.03
2023-04-07T23:26:13.083Z,101136.53
2023-04-07T23:28:41.644Z,101132.16
2023-04-07T23:31:10.511Z,101130.44
2023-04-07T23:33:39.092Z,101134.78
2023-04-07T23:36:08.926Z,101127.84
2023-04-07T23:38:39.509Z,101137.41
2023-04-07T23:41:08.522Z,101139.16
2023-04-07T23:43:37.099Z,101136.56
2023-04-07T23:46:05.533Z,101135.69
2023-04-07T23:48:34.142Z,101135.69
2023-04-07T23:51:02.736Z,101137.41
2023-04-07T23:53:32.974Z,101146.16
2023-04-07T23:56:01.672Z,101140.03
2023-04-07T23:58:30.407Z,101141.78
